Aviation Digital Data Service (ADDS)

Output produced by METARs form (1125 UTC 19 January 2019)
found at http://www.aviationweather.gov/metar/data/
 
KADF 191056Z AUTO 00000KT 10SM FEW100 SCT120 12/12 A2958 RMK AO2 SLP021 T01220122
KADF 190708Z 1907/2006 15008G15KT 2SM -RA BR VCTS BKN004 OVC012CB WS020/20045KT 
     TEMPO 1907/1910 1/2SM FG VV002 
     FM191000 22010KT 3SM -RA BR VCTS OVC004CB WS020/22045KT 
     FM191300 30014G25KT 4SM -RA BR OVC009 
     FM191700 32015G26KT P6SM OVC015 
     FM200000 32015G20KT P6SM OVC030
       
KBVX 191118Z AUTO 34004KT 10SM SCT005 BKN120 09/09 A2954 RMK AO2 RAE11 P0000
KSUZ 191115Z AUTO 33004KT 10SM 13/11 A2956 RMK A01
KVBT 191113Z AUTO 34018G23KT 4SM UP BR OVC005 M01/M01 A2977 RMK AO2 CIG 004V007 P0000 FZRANO
KHKA 191117Z AUTO 17010KT 10SM VCTS OVC010 13/11 A2957 RMK AO2 LTG DSNT ALQDS RAE06 P0001 T01280111 $
KCDH 191115Z AUTO 00000KT 2SM BR FEW033 FEW050 SCT065 12/11 A2957 RMK AO2
KCCA 191115Z AUTO 00000KT 10SM FEW055 SCT065 OVC075 09/09 A2957 RMK AO2
K4M9 191115Z AUTO 34008KT 8SM SCT003 OVC015 10/10 A2959 RMK AO2 LTG DSNT SE AND S PWINO
KDEQ 191102Z AUTO 33013G24KT 10SM BKN014 OVC022 11/10 A2962 RMK AO2 PRESRR T01110100
KELD 191053Z AUTO 00000KT 10SM BKN090 13/13 A2959 RMK AO2 RAE09 SLP017 P0000 T01280128 $
KELD 190945Z 1910/2006 18013KT 6SM -SHRA VCTS OVC080CB 
     TEMPO 1910/1912 5SM -SHRA BR OVC060 
     FM191300 23014KT P6SM OVC010 
     FM191500 27015G21KT P6SM OVC015 
     FM200000 33016G25KT P6SM OVC025
       
KFYV 191123Z AUTO 35009G19KT 4SM -SN BR BKN010 OVC016 01/M01 A2975 RMK AO2 RAE11UPB06E21SNB21 CIG 006V012 P0000 T00061011
KFYV 190820Z 1908/2006 30010G22KT 4SM RA BR OVC015 
     TEMPO 1908/1912 BKN006 
     FM191300 33022G30KT 4SM -SN OVC007 
     FM191700 33022G30KT 3SM -SN OVC012 
     FM200000 34014G20KT P6SM OVC025
       
KXNA 191120Z 35013G26KT 5SM -SN OVC008 01/M02 A2977 RMK AO2 PK WND 34026/1115 CIG 006V012 P0000 T00061022 $
KXNA 191024Z 1910/2006 35017G27KT 3SM -SN BR OVC006 
     FM191700 35022G30KT P6SM OVC012 
     FM200000 34014G20KT P6SM OVC025
       
KFLP 191056Z AUTO 28005KT 10SM BKN003 BKN013 OVC075 08/07 A2962 RMK AO2 RAE42 PRESRR SLP030 P0004 T00780072
KFSM 191053Z AUTO 30015G22KT 10SM -RA OVC013 04/02 A2973 RMK AO2 PK WND 32027/1010 PRESRR SLP066 P0002 T00440022
KFSM 190520Z 1906/2006 08007KT P6SM OVC007 
     TEMPO 1906/1909 4SM TSRA BR BKN012CB 
     FM190900 30013KT 6SM -SHRA BR OVC007 
     FM191200 30022G30KT 5SM -RASN OVC007 
     FM191500 30024G32KT 2SM -SN OVC007 
     FM191900 31024G30KT P6SM OVC012 
     FM200000 33015G25KT P6SM OVC025
       
KHRO 191116Z AUTO 31015G22KT 5SM -RA BR OVC005 03/02 A2966 RMK AO2 P0002 T00280022
KHRO 190520Z 1906/2006 14015KT 2SM -RA BR VCTS BKN005CB OVC010 WS020/19040KT 
     TEMPO 1906/1908 1/2SM -RA FG OVC002 
     FM190800 30012G20KT 1SM RA BR BKN002 OVC005 WS020/25035KT 
     FM191500 32020G28KT 6SM -SN BR OVC010 
     FM192300 33018G25KT P6SM OVC030
       
KHOT 191053Z AUTO VRB03KT 10SM SCT035 SCT042 BKN060 13/12 A2958 RMK AO2 RAB26E50 PRESRR SLP013 P0000 T01330117
KHOT 190521Z 1905/2006 10008G15KT 3SM -RA BR VCTS BKN002 OVC012CB WS020/20045KT 
     TEMPO 1906/1909 1SM BR 
     FM190900 22010KT 3SM -RA BR VCTS OVC005CB WS020/22045KT 
     FM191300 30014G25KT 4SM -RA BR OVC009 
     FM191700 32015G26KT P6SM OVC015
       
KJBR 191110Z AUTO 18003KT 6SM VCTS RA BR FEW009 BKN055 OVC080 13/13 A2956 RMK AO2 LTG DSNT ALQDS P0004 T01280128
KJBR 190811Z 1908/2006 17010G20KT P6SM VCSH BKN004 OVC015 WS020/22050KT 
     FM191000 20010G25KT 5SM -RA BR VCTS OVC006CB 
     FM191600 27014G22KT 4SM -RA OVC015 
     FM200000 33020KT P6SM VCSH OVC015 
     TEMPO 2002/2006 5SM -SN
       
KLIT 191053Z 31010G19KT 10SM FEW017 BKN070 OVC100 13/10 A2956 RMK AO2 PK WND 31027/1030 WSHFT 1024 RAE44 TSE12 SLP012 P0009 T01280100
KLIT 190712Z 1907/2006 15010KT 5SM -RA BR VCTS OVC005CB WS020/19045KT 
     FM191000 20010G15KT 3SM -SHRA BR OVC008 WS020/22040KT 
     FM191700 30020G28KT 6SM BR OVC010 
     FM200000 32020G26KT P6SM OVC030
       
KMEZ 191115Z AUTO 28010KT 10SM OVC014 08/07 A2964 RMK AO2
KLLQ 191053Z AUTO VRB03KT 10SM -RA FEW007 BKN030 OVC095 14/13 A2958 RMK AO2 PK WND 32029/1032 RAE00B12 PRESFR SLP015 P0024 T01390128
KLLQ 191041Z 1911/2006 21012G20KT 4SM -RA BR VCTS BKN007CB OVC012 WS020/21045KT 
     TEMPO 1911/1912 1SM +TSRA BR BKN007CB 
     FM191600 27013G20KT P6SM OVC015 
     FM200000 31015G20KT P6SM OVC030
       
KBPK 191107Z AUTO VRB04KT 10SM BKN003 07/06 A2961 RMK AO2 PRESRR T00670061
KBPK 190520Z 1906/2006 12010KT 3SM -RA BR VCTS BKN005CB OVC010 WS020/16040KT 
     TEMPO 1906/1908 2SM RA BR OVC002 
     FM190800 09007KT 2SM -RA BR BKN002 OVC005 WS020/21030KT 
     FM191400 33015G22KT 6SM -SN BR OVC010 
     FM192300 33020G25KT P6SM OVC030
       
KM19 191118Z AUTO 33005KT 10SM -RA SCT007 SCT070 OVC100 13/12 A2954 RMK AO2 LTG DSNT NE P0001
KPBF 191053Z AUTO 20007KT 10SM SCT100 BKN110 14/12 A2957 RMK AO2 PK WND 28034/0954 WSHFT 0949 RAE27B35E46 TSE17 SLP012 P0023 T01440122
KPBF 190520Z 1906/2006 14012KT 5SM -RA BR VCTS BKN004 OVC008CB WS020/20045KT 
     FM191000 21012KT 5SM -RA BR BKN007 OVC012 WS020/21045KT 
     FM191600 30018G26KT P6SM OVC015 
     FM200000 32020G27KT P6SM OVC030
       
KROG 191121Z AUTO 34014G28KT 6SM UP BR OVC007 M01/M01 A2976 RMK AO2 PK WND 34028/1112 CIG 005V010 P0000
KROG 191025Z 1910/2006 34017G24KT 4SM -SN BR OVC005 
     FM191300 33022G30KT 2SM -SN OVC007 
     FM191700 33022G30KT P6SM OVC012 
     FM200000 34014G20KT P6SM OVC025
       
KRUE 191053Z AUTO 05003KT 10SM BKN070 OVC085 11/10 A2956 RMK AO2 RAB06E45 SLP008 P0001 T01060100
KSRC 191114Z AUTO 15004KT 10SM BKN005 OVC065 13/13 A2955 RMK AO2 RAE13 P0000
KSLG 191114Z AUTO 34020G24KT 3SM UP BR OVC007 M01/M02 A2979 RMK AO2 PK WND 34026/1102 P0000 FZRANO
KSGT 191056Z AUTO 18004KT 10SM -RA BKN095 OVC120 13/12 A2957 RMK AO2 WSHFT 0950 LTG DSNT E AND SE TSE47 SLP015 P0011 T01330117
KTXK 191053Z AUTO 26005KT 8SM FEW120 14/14 A2959 RMK AO2 SLP019 T01390139 $
KTXK 190806Z 1908/2006 22014KT P6SM OVC015 
     TEMPO 1908/1910 VRB20G30KT 3SM +TSRA BR OVC010CB 
     FM191000 25016G23KT P6SM OVC010 
     FM191200 29019G28KT P6SM OVC015 
     FM191500 32020G30KT P6SM OVC020 
     FM200100 33013G20KT P6SM FEW025
       
KARG 191124Z AUTO 34011KT 10SM -RA BKN005 OVC011 09/09 A2959 RMK AO2 LTG DSNT E CIG 002V009 P0003
KAWM 191115Z AUTO 16009KT 10SM VCTS OVC006 15/ A2955 RMK AO2 LTG DSNT SW-N T0150 $